Omaha, NE (68101)

9:13 PM CST on February 07, 2016 (GMT -0600)
Midtown Crossing area | | Change Station
CLOSE
Current Station
Personal Weather Station
Location: Omaha, NE
Elevation: 1161 ft
Nearby Weather Stations
Active Advisory: Wind Advisory Active Notice: Public Information Statement

Elev 1161 ft 41.26 °N, 95.96 °W | Updated 15 seconds ago

Overcast
Overcast
33.8 °F
Feels Like 24 °F
N
13.4
Wind Variable Wind from North
Gusts 19.9 mph

Today
High -- | Low -- °F
--% Chance of Precip.
Yesterday
High -- | Low -- °F
Precip. -- in
Pressure 30.01 in
Visibility 9.0 miles
Clouds Scattered Clouds 1900 ft
Scattered Clouds 2400 ft
Overcast 3200 ft
Windchill 24 °F
Dew Point 6 °F
Humidity 30%
Rainfall 0.00 in
Snow Depth Not available.
7:28 AM 5:47 PM
Waning Crescent, 0% visible
METAR KOMA 080252Z 30014G22KT 9SM UP SCT019 SCT024 OVC032 01/M02 A2998 RMK AO2 PK WND 31028/0222 UPB38SNB09E27 SLP160 P0000 60000 T00111022 50007
Pressure 30.01 in
Visibility 9.0 miles
Clouds Scattered Clouds 1900 ft
Scattered Clouds 2400 ft
Overcast 3200 ft
Windchill 24 °F
Dew Point 6 °F
Humidity 30%
Rainfall 0.00 in
Snow Depth Not available.
7:28 AM 5:47 PM
Waning Crescent, 0% visible
METAR KOMA 080252Z 30014G22KT 9SM UP SCT019 SCT024 OVC032 01/M02 A2998 RMK AO2 PK WND 31028/0222 UPB38SNB09E27 SLP160 P0000 60000 T00111022 50007

10-Day Weather Forecast

Almanac

Astronomy

Feb. 07, 2016 Rise Set
Actual Time
Civil Twilight
Nautical Twilight
Astronomical Twilight
Moon
Length of Visible Light
Length of Day
Tomorrow will be .
, % of the Moon is Illuminated

Today's Extremes

State Highs State Lows

Community

WunderPhotos

Upload Photos

1,891,375 photos uploaded!

WunderBlog® & News

Nearby

Air Quality

  Air Quality AQ Index Pollutant
Not available.

Snow Depth

Station Depth Elevation

Earthquake Activity

City Distance Mag. Time & Date
Minimum magnitude displayed is 2.5.

Coastal Water Temperatures

Place Temperature

Stations

Nearby Weather Stations

Station Location Temp. Windchill Dew Point Humidity Wind Precip. Elev Updated Type
                   

Watches & Warnings

Wind Advisory
Issued: 7:53 PM CST Feb. 7, 2016 – National Weather Service

... Wind Advisory remains in effect from 3 am to 5 PM CST Monday...

* timing... strong northwest winds will develop overnight and continue
through Monday afternoon.

* Winds... northwest winds of 25 to 35 mph with gusts to 45 mph.

* Impacts... winds of this magnitude will be hazardous to
motorists... especially those with high profile vehicles. In
addition... snow showers this evening and overnight may lead to
areas of blowing snow. This may create hazardous travel
conditions in some parts of the area.

Precautionary/preparedness actions...

A Wind Advisory means that sustained wind speeds between 30 to
39 mph or gusts between 45 to 57 mph are expected. Winds this
strong can make driving difficult... especially for high profile
vehicles. Use extra caution.



Fobert